Time;durP1;ratioP1;P1;durP2;ratioP2;P2;SDS_P1;SDS_P2;PMS_P1;PMS_P2;Temp;Humidity;BMP_temperature;BMP_pressure;BME280_temperature;BME280_humidity;BME280_pressure;Samples;Min_cycle;Max_cycle;Signal;HPM_P1;HPM_P2
2023/04/07 00:00:51;;;;;;;5.07;2.95;;;7.50;99.90;;;;;;5033492;28;20022;-55
2023/04/07 00:03:17;;;;;;;7.35;2.53;;;7.60;99.90;;;;;;5033328;28;20029;-50
2023/04/07 00:05:43;;;;;;;5.22;3.15;;;7.60;99.90;;;;;;5033318;28;20030;-52
2023/04/07 00:08:08;;;;;;;4.32;2.67;;;7.70;99.90;;;;;;5031140;28;20418;-51
2023/04/07 00:10:34;;;;;;;3.10;2.50;;;7.80;99.90;;;;;;5033097;28;20505;-53
2023/04/07 00:13:00;;;;;;;7.13;4.85;;;7.90;99.90;;;;;;5047870;28;20047;-55
2023/04/07 00:15:26;;;;;;;3.92;2.80;;;7.80;99.90;;;;;;5031170;28;20045;-48
2023/04/07 00:17:52;;;;;;;9.52;3.50;;;7.80;99.90;;;;;;5033041;28;20032;-53
2023/04/07 00:20:18;;;;;;;6.60;2.70;;;7.80;99.90;;;;;;5033070;28;20025;-58
2023/04/07 00:22:44;;;;;;;5.05;3.15;;;7.80;99.90;;;;;;5047681;28;20033;-53
2023/04/07 00:25:10;;;;;;;5.10;3.30;;;7.80;99.90;;;;;;5047604;28;20045;-51
2023/04/07 00:27:35;;;;;;;6.50;2.78;;;7.80;99.90;;;;;;5033115;28;20061;-53
2023/04/07 00:30:02;;;;;;;2.63;2.05;;;7.80;99.90;;;;;;5031104;28;20053;-51
2023/04/07 00:32:27;;;;;;;3.92;2.85;;;7.80;99.90;;;;;;5032944;28;20171;-50
2023/04/07 00:34:53;;;;;;;2.13;1.95;;;7.90;99.90;;;;;;5033272;28;20060;-47
2023/04/07 00:37:19;;;;;;;6.07;4.10;;;7.80;99.90;;;;;;5035115;28;20112;-54
2023/04/07 00:39:46;;;;;;;4.95;3.03;;;7.90;99.90;;;;;;5033910;28;20083;-56
2023/04/07 00:42:11;;;;;;;2.17;1.95;;;7.90;99.90;;;;;;5034415;28;20040;-53
2023/04/07 00:44:37;;;;;;;4.60;2.83;;;7.90;99.90;;;;;;5032685;28;20038;-52
2023/04/07 00:47:03;;;;;;;3.10;2.05;;;7.90;99.90;;;;;;5033580;28;20112;-50
2023/04/07 00:49:30;;;;;;;5.88;3.53;;;7.90;99.90;;;;;;5032303;28;20512;-53
2023/04/07 00:51:57;;;;;;;9.50;4.65;;;7.80;99.90;;;;;;5033902;28;20064;-53
2023/04/07 00:54:23;;;;;;;3.20;2.58;;;7.80;99.90;;;;;;5031334;28;20049;-54
2023/04/07 00:56:49;;;;;;;4.32;2.28;;;7.90;99.90;;;;;;5047485;28;20038;-47
2023/04/07 00:59:15;;;;;;;2.58;1.92;;;7.80;99.90;;;;;;5032969;28;20026;-51
2023/04/07 01:01:56;;;;;;;2.28;2.08;;;7.90;99.90;;;;;;5032660;28;20037;-48
2023/04/07 01:04:54;;;;;;;6.30;3.20;;;7.90;99.90;;;;;;5033016;28;20412;-46
2023/04/07 01:07:33;;;;;;;2.38;2.17;;;7.80;99.90;;;;;;5036223;28;20100;-48
2023/04/07 01:10:05;;;;;;;1.73;1.52;;;7.80;99.90;;;;;;5036347;28;20045;-52
2023/04/07 01:12:34;;;;;;;;;;;7.70;99.90;;;;;;5034820;28;20073;-58
2023/04/07 01:15:07;;;;;;;3.92;2.13;;;7.70;99.90;;;;;;5018711;28;19963;-53
2023/04/07 01:17:35;;;;;;;4.03;2.58;;;7.70;99.90;;;;;;5014732;28;20405;-51
2023/04/07 01:20:07;;;;;;;3.35;2.15;;;7.80;99.90;;;;;;5014450;28;20069;-49
2023/04/07 01:22:36;;;;;;;3.85;2.25;;;7.80;99.90;;;;;;5014621;28;20087;-51
2023/04/07 01:25:32;;;;;;;3.70;2.72;;;7.80;99.90;;;;;;5016317;28;20042;-45
2023/04/07 01:28:14;;;;;;;4.80;2.10;;;7.90;99.90;;;;;;5030751;28;20038;-48
2023/04/07 01:30:42;;;;;;;3.72;2.40;;;7.90;99.90;;;;;;5033887;28;20053;-50
2023/04/07 01:33:10;;;;;;;2.30;2.00;;;7.90;99.90;;;;;;5033754;28;20037;-45
2023/04/07 01:35:37;;;;;;;3.05;1.92;;;8.00;99.90;;;;;;5033626;28;20107;-55
2023/04/07 01:38:05;;;;;;;2.78;2.45;;;8.10;99.90;;;;;;5016791;28;20548;-49
2023/04/07 01:40:34;;;;;;;2.67;2.22;;;8.20;99.90;;;;;;5017107;28;20512;-56
2023/04/07 01:43:00;;;;;;;2.58;2.08;;;8.20;99.90;;;;;;5033889;28;20049;-48
2023/04/07 01:45:27;;;;;;;3.92;2.75;;;;;;;;;;5033483;28;20478;-53
2023/04/07 01:47:54;;;;;;;2.42;2.22;;;7.70;99.90;;;;;;5016801;28;20052;-50
2023/04/07 01:50:20;;;;;;;3.13;1.85;;;7.30;99.90;;;;;;5033385;28;20042;-50
2023/04/07 01:52:47;;;;;;;3.08;2.63;;;7.40;99.90;;;;;;5033381;28;20036;-46
2023/04/07 01:55:13;;;;;;;2.97;2.35;;;7.50;99.90;;;;;;5033422;28;20155;-47
2023/04/07 01:57:38;;;;;;;3.60;2.03;;;7.30;99.90;;;;;;5016608;28;20041;-49
2023/04/07 02:00:05;;;;;;;2.67;2.25;;;7.50;99.90;;;;;;5033461;28;20036;-54
2023/04/07 02:02:35;;;;;;;2.53;2.33;;;7.50;99.90;;;;;;5035919;28;20120;-47
2023/04/07 02:05:06;;;;;;;1.90;1.70;;;7.60;99.90;;;;;;5032952;28;20051;-54
2023/04/07 02:07:50;;;;;;;4.30;2.53;;;7.30;99.90;;;;;;5033257;28;20132;-52
2023/04/07 02:10:19;;;;;;;4.25;2.35;;;7.40;99.90;;;;;;5033062;28;20041;-47
2023/04/07 02:12:47;;;;;;;1.90;1.73;;;7.50;99.90;;;;;;5033035;28;20512;-48
2023/04/07 02:15:15;;;;;;;6.97;2.53;;;7.40;99.90;;;;;;5016475;28;20508;-51
2023/04/07 02:17:44;;;;;;;2.67;2.38;;;7.50;99.90;;;;;;5031745;28;20112;-54
2023/04/07 02:20:11;;;;;;;3.13;1.92;;;7.50;99.90;;;;;;5033040;28;20060;-48
2023/04/07 02:22:41;;;;;;;5.32;2.47;;;7.60;99.90;;;;;;5032825;28;20091;-49
2023/04/07 02:25:27;;;;;;;3.13;1.92;;;7.70;99.90;;;;;;5032716;28;20057;-51
2023/04/07 02:27:54;;;;;;;3.13;1.95;;;7.60;99.90;;;;;;5032739;28;20378;-57
2023/04/07 02:30:20;;;;;;;2.70;1.92;;;7.50;99.90;;;;;;5016015;28;20048;-53
2023/04/07 02:32:46;;;;;;;3.67;2.30;;;7.60;99.90;;;;;;5032752;28;20041;-51
2023/04/07 02:35:12;;;;;;;4.65;2.63;;;7.60;99.90;;;;;;5016071;28;20053;-46
2023/04/07 02:37:38;;;;;;;3.28;2.25;;;7.60;99.90;;;;;;5032474;28;20087;-51
2023/04/07 02:40:05;;;;;;;3.70;2.40;;;7.60;99.90;;;;;;5022644;28;20112;-53
2023/04/07 02:42:31;;;;;;;3.00;2.58;;;7.50;99.90;;;;;;5017273;28;20026;-51
2023/04/07 02:44:56;;;;;;;2.97;2.58;;;7.60;99.90;;;;;;5014790;28;20034;-54
2023/04/07 02:47:22;;;;;;;3.58;2.00;;;7.60;99.90;;;;;;5014805;28;20030;-50
2023/04/07 02:49:48;;;;;;;3.80;2.20;;;7.60;99.90;;;;;;5012559;28;20124;-57
2023/04/07 02:52:14;;;;;;;2.83;2.00;;;7.70;99.90;;;;;;5022564;28;20033;-52
2023/04/07 02:54:40;;;;;;;2.55;1.73;;;7.80;99.90;;;;;;5034290;28;20552;-50
2023/04/07 02:57:06;;;;;;;4.95;2.20;;;7.80;99.90;;;;;;5034307;28;20116;-51
2023/04/07 02:59:31;;;;;;;2.65;2.45;;;8.00;99.90;;;;;;5034310;28;20064;-47
2023/04/07 03:01:57;;;;;;;3.40;2.83;;;8.00;99.90;;;;;;5034217;28;20036;-46
2023/04/07 03:04:24;;;;;;;2.13;1.95;;;8.10;99.90;;;;;;5033863;28;20037;-49
2023/04/07 03:06:49;;;;;;;5.43;2.85;;;8.00;99.90;;;;;;5032270;28;20667;-51
2023/04/07 03:09:15;;;;;;;2.70;2.08;;;7.80;99.90;;;;;;5034074;28;20072;-54
2023/04/07 03:11:41;;;;;;;2.72;1.70;;;7.70;99.90;;;;;;5034144;28;20037;-49
2023/04/07 03:14:07;;;;;;;4.45;2.92;;;7.70;99.90;;;;;;5034164;28;20120;-47
2023/04/07 03:16:32;;;;;;;4.00;2.40;;;7.70;99.90;;;;;;5021267;28;20485;-50
2023/04/07 03:18:58;;;;;;;4.95;2.88;;;7.70;99.90;;;;;;5028654;28;20050;-50
2023/04/07 03:21:24;;;;;;;4.30;1.92;;;7.70;99.90;;;;;;5039028;28;20094;-48
2023/04/07 03:23:49;;;;;;;5.10;2.85;;;7.80;99.90;;;;;;5023801;28;20057;-50
2023/04/07 03:26:15;;;;;;;4.22;2.97;;;7.80;99.90;;;;;;5034018;28;20041;-56
2023/04/07 03:28:41;;;;;;;1.35;1.13;;;7.80;99.90;;;;;;5033236;28;20043;-51
2023/04/07 03:31:07;;;;;;;2.63;2.15;;;7.50;99.90;;;;;;5031918;28;20057;-53
2023/04/07 03:33:33;;;;;;;1.60;1.25;;;7.40;99.90;;;;;;5033683;28;20037;-52
2023/04/07 03:35:58;;;;;;;1.92;1.83;;;7.30;99.90;;;;;;5033700;28;20041;-54
2023/04/07 03:38:25;;;;;;;0.40;0.40;;;7.10;99.90;;;;;;5033861;28;20485;-50
2023/04/07 03:40:51;;;;;;;0.73;0.65;;;7.00;99.90;;;;;;5033570;28;20087;-51
2023/04/07 03:43:17;;;;;;;0.95;0.95;;;;;;;;;;5031685;28;20049;-48
2023/04/07 03:45:43;;;;;;;1.23;0.77;;;;;;;;;;5031725;28;20554;-49
2023/04/07 03:48:11;;;;;;;0.85;0.77;;;6.40;99.90;;;;;;5033395;28;20046;-48
2023/04/07 03:50:38;;;;;;;1.38;1.27;;;6.40;99.90;;;;;;5033742;28;20044;-49
2023/04/07 03:53:04;;;;;;;1.35;1.25;;;;;;;;;;5033429;28;20033;-48
2023/04/07 03:55:30;;;;;;;0.40;0.40;;;;;;;;;;5033636;28;20037;-53
2023/04/07 03:57:57;;;;;;;0.95;0.73;;;;;;;;;;5033240;28;20393;-53
2023/04/07 04:00:23;;;;;;;0.90;0.90;;;6.30;99.90;;;;;;5031477;28;20042;-49
2023/04/07 04:02:48;;;;;;;0.85;0.68;;;6.10;99.90;;;;;;5033414;28;20371;-57
2023/04/07 04:05:14;;;;;;;0.80;0.80;;;6.10;99.90;;;;;;5033508;28;20481;-49
2023/04/07 04:07:40;;;;;;;2.13;1.92;;;6.20;99.90;;;;;;5031564;28;20046;-51
2023/04/07 04:10:06;;;;;;;0.95;0.88;;;6.10;99.90;;;;;;5032961;28;20051;-50
2023/04/07 04:12:32;;;;;;;2.50;0.73;;;6.10;99.90;;;;;;5033243;28;20034;-50
2023/04/07 04:14:58;;;;;;;1.77;1.65;;;6.10;99.90;;;;;;5033051;28;20086;-55
2023/04/07 04:17:24;;;;;;;2.30;1.85;;;6.00;99.90;;;;;;5033241;28;20037;-54
2023/04/07 04:19:50;;;;;;;2.42;1.58;;;6.00;99.90;;;;;;5033344;28;20061;-54
2023/04/07 04:22:16;;;;;;;3.33;1.98;;;6.10;99.90;;;;;;5033369;28;20044;-48
2023/04/07 04:24:42;;;;;;;1.63;1.15;;;6.00;99.90;;;;;;5047594;28;20045;-52
2023/04/07 04:27:08;;;;;;;1.75;1.42;;;6.10;99.90;;;;;;5029725;28;20413;-51
2023/04/07 04:29:34;;;;;;;1.70;1.60;;;;;;;;;;5032071;28;20120;-47
2023/04/07 04:32:00;;;;;;;0.80;0.80;;;5.60;99.90;;;;;;5024094;28;20133;-52
2023/04/07 04:34:26;;;;;;;0.85;0.80;;;5.50;99.90;;;;;;5034646;28;20545;-56
2023/04/07 04:36:52;;;;;;;2.28;2.08;;;5.60;99.90;;;;;;5020679;28;20083;-53
2023/04/07 04:39:18;;;;;;;2.63;1.30;;;5.70;99.90;;;;;;5023164;28;20029;-49
2023/04/07 04:41:44;;;;;;;0.47;0.47;;;5.70;99.90;;;;;;5029263;28;20022;-47
2023/04/07 04:44:11;;;;;;;1.10;1.05;;;5.60;99.90;;;;;;5011964;28;20064;-53
2023/04/07 04:46:37;;;;;;;1.85;1.75;;;5.60;99.90;;;;;;5028898;28;20029;-52
2023/04/07 04:49:02;;;;;;;2.35;2.15;;;5.60;99.90;;;;;;5048595;28;20056;-56
2023/04/07 04:51:28;;;;;;;0.73;0.73;;;5.70;99.90;;;;;;5034077;28;20034;-49
2023/04/07 04:53:54;;;;;;;1.30;1.20;;;5.60;99.90;;;;;;5033571;28;20025;-54
2023/04/07 04:56:20;;;;;;;0.85;0.85;;;5.60;99.90;;;;;;5038494;28;20046;-47
2023/04/07 04:58:46;;;;;;;1.85;1.73;;;5.50;99.90;;;;;;5023472;28;20025;-53
2023/04/07 05:01:12;;;;;;;1.90;1.70;;;5.50;99.90;;;;;;5009750;28;20456;-53
2023/04/07 05:03:38;;;;;;;1.60;1.30;;;5.40;99.90;;;;;;5031126;28;20029;-52
2023/04/07 05:06:04;;;;;;;3.85;1.73;;;5.50;99.90;;;;;;5035948;28;20064;-54
2023/04/07 05:08:30;;;;;;;0.73;0.73;;;5.40;99.90;;;;;;5036371;28;20048;-50
2023/04/07 05:10:56;;;;;;;3.90;2.15;;;5.30;99.90;;;;;;5026268;28;20045;-51
2023/04/07 05:13:22;;;;;;;4.13;2.85;;;5.30;99.90;;;;;;5026954;28;20049;-53
2023/04/07 05:15:48;;;;;;;6.45;2.33;;;5.30;99.90;;;;;;5027419;28;20496;-54
2023/04/07 05:18:14;;;;;;;2.20;1.48;;;5.40;99.90;;;;;;5026590;28;20472;-54
2023/04/07 05:20:39;;;;;;;0.93;0.93;;;5.30;99.90;;;;;;5028577;28;20032;-53
2023/04/07 05:23:05;;;;;;;1.65;1.27;;;5.10;99.90;;;;;;5027162;28;20041;-51
2023/04/07 05:25:31;;;;;;;1.42;1.35;;;5.10;99.90;;;;;;5035885;28;20081;-51
2023/04/07 05:28:01;;;;;;;0.75;0.75;;;5.10;99.90;;;;;;5033932;28;20397;-51
2023/04/07 05:30:27;;;;;;;1.27;1.17;;;5.00;99.90;;;;;;5036131;28;20144;-50
2023/04/07 05:32:52;;;;;;;0.68;0.68;;;5.20;99.90;;;;;;5035407;28;20552;-52
2023/04/07 05:35:18;;;;;;;1.00;0.90;;;5.20;99.90;;;;;;5028717;28;20033;-51
2023/04/07 05:37:44;;;;;;;0.57;0.57;;;5.30;99.90;;;;;;5027307;28;20025;-51
2023/04/07 05:40:11;;;;;;;1.58;1.48;;;5.20;99.90;;;;;;5032674;28;20436;-50
2023/04/07 05:42:36;;;;;;;0.73;0.73;;;5.30;99.90;;;;;;5030124;28;20092;-51
2023/04/07 05:45:03;;;;;;;1.17;1.17;;;5.30;99.90;;;;;;5015969;28;20041;-55
2023/04/07 05:47:29;;;;;;;1.42;1.33;;;5.40;99.90;;;;;;5030462;28;20042;-56
2023/04/07 05:49:55;;;;;;;1.20;1.08;;;5.40;99.90;;;;;;5030453;28;20057;-55
2023/04/07 05:52:20;;;;;;;1.33;1.23;;;5.50;99.90;;;;;;5013746;28;20044;-50
2023/04/07 05:54:46;;;;;;;1.42;1.33;;;5.80;99.90;;;;;;5015827;28;20030;-51
2023/04/07 05:57:12;;;;;;;1.55;1.33;;;5.70;99.90;;;;;;5015909;28;20089;-52
2023/04/07 05:59:38;;;;;;;1.10;1.00;;;5.50;99.90;;;;;;5014070;28;20134;-46
2023/04/07 06:02:04;;;;;;;2.97;1.85;;;5.60;99.90;;;;;;5015736;28;20508;-48
2023/04/07 06:04:30;;;;;;;1.50;1.40;;;5.50;99.90;;;;;;5016139;28;20040;-49
2023/04/07 06:06:56;;;;;;;3.13;2.55;;;5.60;99.90;;;;;;5015769;28;20407;-54
2023/04/07 06:09:22;;;;;;;4.18;2.10;;;5.70;99.90;;;;;;5015531;28;20045;-50
2023/04/07 06:11:47;;;;;;;1.90;1.73;;;5.90;99.90;;;;;;5015742;28;20038;-53
2023/04/07 06:14:13;;;;;;;0.80;0.80;;;5.80;99.90;;;;;;5030004;28;20045;-50
2023/04/07 06:16:39;;;;;;;1.45;1.35;;;5.90;99.90;;;;;;5015567;28;20030;-56
2023/04/07 06:19:06;;;;;;;1.85;1.65;;;6.10;99.90;;;;;;5030118;28;20394;-46
2023/04/07 06:21:32;;;;;;;3.00;2.30;;;6.10;99.90;;;;;;5015579;28;20449;-52
2023/04/07 06:23:58;;;;;;;2.28;2.08;;;6.10;99.90;;;;;;5014909;28;20050;-45
2023/04/07 06:26:24;;;;;;;1.52;1.30;;;6.10;99.90;;;;;;5015150;28;20056;-54
2023/04/07 06:28:50;;;;;;;3.75;2.15;;;6.20;99.90;;;;;;5015448;28;20492;-47
2023/04/07 06:31:17;;;;;;;2.83;2.50;;;6.20;99.90;;;;;;5015200;28;20091;-49
2023/04/07 06:33:43;;;;;;;2.58;2.28;;;6.20;99.90;;;;;;5015221;28;20113;-50
2023/04/07 06:36:10;;;;;;;2.67;2.08;;;6.20;99.90;;;;;;5015074;28;20485;-50
2023/04/07 06:38:36;;;;;;;2.92;2.63;;;6.20;99.90;;;;;;5014964;28;20069;-52
2023/04/07 06:41:01;;;;;;;1.48;0.93;;;6.20;99.90;;;;;;5015009;28;20068;-48
2023/04/07 06:43:29;;;;;;;2.80;1.88;;;6.10;99.90;;;;;;5013091;28;20440;-55
2023/04/07 06:45:55;;;;;;;1.90;1.65;;;6.10;99.90;;;;;;5013226;28;20041;-53
2023/04/07 06:48:21;;;;;;;4.38;2.13;;;6.20;99.90;;;;;;5014733;28;20036;-48
2023/04/07 06:50:49;;;;;;;3.53;2.15;;;6.30;99.90;;;;;;5014611;28;20065;-56
2023/04/07 06:53:15;;;;;;;2.30;2.08;;;6.40;99.90;;;;;;5015003;28;20131;-55
2023/04/07 06:55:40;;;;;;;5.40;3.67;;;6.40;99.90;;;;;;5013235;28;20124;-54
2023/04/07 06:58:06;;;;;;;2.15;1.90;;;6.40;99.90;;;;;;5014830;28;20121;-53
2023/04/07 07:00:32;;;;;;;3.17;2.33;;;6.60;99.90;;;;;;5014407;28;20160;-56
2023/04/07 07:02:57;;;;;;;3.22;2.55;;;6.50;99.90;;;;;;5013940;28;20033;-57
2023/04/07 07:05:23;;;;;;;2.53;1.77;;;6.50;99.90;;;;;;5013977;28;20133;-51
2023/04/07 07:07:50;;;;;;;3.17;2.67;;;6.60;99.90;;;;;;5044060;28;20049;-51
2023/04/07 07:10:16;;;;;;;3.60;2.63;;;;;;;;;;5034190;28;20029;-46
2023/04/07 07:12:42;;;;;;;7.40;2.70;;;7.10;99.90;;;;;;5033885;28;20025;-49
2023/04/07 07:15:08;;;;;;;2.65;2.38;;;7.00;99.90;;;;;;5032897;28;20040;-48
2023/04/07 07:17:34;;;;;;;3.47;1.95;;;;;;;;;;5030804;28;20099;-56
2023/04/07 07:20:01;;;;;;;2.90;2.53;;;;;;;;;;5029542;28;20386;-52
2023/04/07 07:22:27;;;;;;;2.58;2.30;;;;;;;;;;5033008;28;20117;-48
2023/04/07 07:24:53;;;;;;;3.63;2.67;;;;;;;;;;5029657;28;20076;-53
2023/04/07 07:27:19;;;;;;;2.45;1.65;;;;;;;;;;5032113;28;20043;-50
2023/04/07 07:29:45;;;;;;;2.05;1.80;;;;;;;;;;5024816;28;20120;-52
2023/04/07 07:32:11;;;;;;;3.28;2.55;;;;;;;;;;5019188;28;20145;-50
2023/04/07 07:34:37;;;;;;;1.20;1.08;;;;;;;;;;5032961;28;20029;-49
2023/04/07 07:37:03;;;;;;;4.88;3.53;;;;;;;;;;5033851;28;20083;-50
2023/04/07 07:39:29;;;;;;;1.45;1.30;;;;;;;;;;5028812;28;20112;-54
2023/04/07 07:41:56;;;;;;;5.47;3.50;;;;;;;;;;5028911;28;20037;-49
2023/04/07 07:44:22;;;;;;;2.75;2.55;;;;;;;;;;5022571;28;20037;-47
2023/04/07 07:46:49;;;;;;;2.80;2.55;;;;;;;;;;5025473;28;20029;-50
2023/04/07 07:49:15;;;;;;;4.70;2.10;;;;;;;;;;5026514;28;20041;-48
2023/04/07 07:51:41;;;;;;;3.28;2.70;;;;;;;;;;5025800;28;20103;-50
2023/04/07 07:54:08;;;;;;;3.72;1.75;;;;;;;;;;5014348;28;20050;-49
2023/04/07 07:56:34;;;;;;;2.60;2.33;;;;;;;;;;5028888;28;20410;-52
2023/04/07 07:59:00;;;;;;;3.83;1.40;;;;;;;;;;5014010;28;20080;-47
2023/04/07 08:01:27;;;;;;;2.88;2.30;;;;;;;;;;5013533;28;20026;-48
2023/04/07 08:03:53;;;;;;;4.18;2.47;;;;;;;;;;4995225;28;20034;-52
2023/04/07 08:06:19;;;;;;;2.90;1.83;;;;;;;;;;5027948;28;20096;-55
2023/04/07 08:08:45;;;;;;;3.38;2.22;;;;;;;;;;5013684;28;20385;-52
2023/04/07 08:11:11;;;;;;;1.92;1.83;;;;;;;;;;5029075;28;20389;-50
2023/04/07 08:13:37;;;;;;;3.05;2.53;;;;;;;;;;5031412;28;20087;-53
2023/04/07 08:16:04;;;;;;;3.03;2.42;;;;;;;;;;5023535;28;20033;-52
2023/04/07 08:18:30;;;;;;;5.47;2.78;;;;;;;;;;5021080;28;20025;-51
2023/04/07 08:20:56;;;;;;;2.58;2.38;;;;;;;;;;5012866;28;20025;-51
2023/04/07 08:23:22;;;;;;;1.98;1.48;;;;;;;;;;5012747;28;20061;-50
2023/04/07 08:25:48;;;;;;;3.17;2.55;;;;;;;;;;5013195;28;20025;-49
2023/04/07 08:28:14;;;;;;;2.47;1.80;;;;;;;;;;5019385;28;20042;-50
2023/04/07 08:30:40;;;;;;;2.25;1.80;;;;;;;;;;5020951;28;20028;-49
2023/04/07 08:33:06;;;;;;;2.63;2.35;;;;;;;;;;5042651;28;20034;-52
2023/04/07 08:35:33;;;;;;;1.45;1.35;;;;;;;;;;5020045;28;20056;-54
2023/04/07 08:37:59;;;;;;;2.95;2.40;;;;;;;;;;5018971;28;20030;-50
2023/04/07 08:40:25;;;;;;;4.25;1.85;;;;;;;;;;5025235;28;20538;-48
2023/04/07 08:42:51;;;;;;;1.98;1.65;;;;;;;;;;5018141;28;20026;-50
2023/04/07 08:45:18;;;;;;;3.65;1.52;;;9.00;99.90;;;;;;5027152;28;20047;-48
2023/04/07 08:47:46;;;;;;;2.65;2.45;;;8.70;99.90;;;;;;5023416;28;20088;-50
2023/04/07 08:50:16;;;;;;;3.15;2.08;;;8.70;99.90;;;;;;5023683;28;20526;-49
2023/04/07 08:52:50;;;;;;;3.75;1.90;;;9.00;99.90;;;;;;5019387;28;20022;-51
2023/04/07 08:55:16;;;;;;;0.82;0.82;;;9.10;99.90;;;;;;5029677;28;20085;-53
2023/04/07 08:57:42;;;;;;;1.58;1.48;;;9.10;99.90;;;;;;5013376;28;20486;-52
2023/04/07 09:00:09;;;;;;;1.27;1.17;;;8.50;99.90;;;;;;5010893;28;20490;-55
2023/04/07 09:02:39;;;;;;;1.73;1.63;;;8.10;99.90;;;;;;4998813;28;20049;-52
2023/04/07 09:05:07;;;;;;;1.73;1.45;;;7.90;99.90;;;;;;5030540;28;20108;-60
2023/04/07 09:07:35;;;;;;;1.13;1.00;;;7.70;99.90;;;;;;5030803;28;20054;-51
2023/04/07 09:10:01;;;;;;;2.17;1.13;;;7.70;99.90;;;;;;5030268;28;20049;-52
2023/04/07 09:12:28;;;;;;;5.15;2.58;;;7.60;99.90;;;;;;5030684;28;20094;-52
2023/04/07 09:14:53;;;;;;;2.33;2.10;;;7.70;99.90;;;;;;5030522;28;20100;-50
2023/04/07 09:17:20;;;;;;;1.35;1.25;;;7.70;99.90;;;;;;5030428;28;20465;-55
2023/04/07 09:19:48;;;;;;;5.68;2.50;;;7.50;99.90;;;;;;5030450;28;20025;-49
2023/04/07 09:22:14;;;;;;;1.88;1.70;;;7.50;99.90;;;;;;5030409;28;20120;-50
2023/04/07 09:24:41;;;;;;;1.35;1.25;;;7.30;99.90;;;;;;5030457;28;20485;-48
2023/04/07 09:27:12;;;;;;;3.08;1.75;;;7.20;99.90;;;;;;5034898;28;20091;-49
2023/04/07 09:29:41;;;;;;;1.70;1.33;;;7.40;99.90;;;;;;5051144;28;20456;-49
2023/04/07 09:32:08;;;;;;;1.25;1.15;;;7.70;99.90;;;;;;5035925;28;20029;-49
2023/04/07 09:34:36;;;;;;;5.55;3.05;;;7.70;99.90;;;;;;5030580;28;20041;-50
2023/04/07 09:37:03;;;;;;;0.65;0.65;;;8.00;99.90;;;;;;5033878;28;20497;-50
2023/04/07 09:39:30;;;;;;;4.40;2.60;;;7.90;99.90;;;;;;5017385;28;20041;-49
2023/04/07 09:41:56;;;;;;;2.88;1.92;;;8.30;99.90;;;;;;5033803;28;20048;-50
2023/04/07 09:44:23;;;;;;;1.90;1.75;;;8.60;99.90;;;;;;5033811;28;20041;-50
2023/04/07 09:46:57;;;;;;;4.32;2.20;;;8.20;99.90;;;;;;5033608;28;20029;-49
2023/04/07 09:49:24;;;;;;;2.83;2.58;;;8.00;99.90;;;;;;5013685;28;20057;-50
2023/04/07 09:51:58;;;;;;;1.73;1.42;;;7.90;99.90;;;;;;5014041;28;20065;-50
2023/04/07 09:54:34;;;;;;;2.42;2.15;;;7.70;99.90;;;;;;4997743;28;20058;-50
2023/04/07 09:57:03;;;;;;;4.45;2.55;;;7.70;99.90;;;;;;4994012;28;20121;-50
2023/04/07 09:59:30;;;;;;;3.30;1.88;;;7.90;99.90;;;;;;4994017;28;20513;-50
2023/04/07 10:01:57;;;;;;;1.38;1.25;;;8.00;99.90;;;;;;4994117;28;20042;-50
2023/04/07 10:04:24;;;;;;;2.83;1.70;;;8.20;99.90;;;;;;4993928;28;20499;-50
2023/04/07 10:06:54;;;;;;;3.28;1.63;;;8.30;99.90;;;;;;4993816;28;20510;-50
2023/04/07 10:09:22;;;;;;;3.10;2.80;;;8.50;99.90;;;;;;4977390;28;20050;-50
2023/04/07 10:11:50;;;;;;;3.75;2.58;;;8.50;99.90;;;;;;4993935;28;20070;-49
2023/04/07 10:14:17;;;;;;;3.42;2.70;;;8.40;99.90;;;;;;4993631;28;20030;-51
2023/04/07 10:16:43;;;;;;;3.53;2.38;;;8.30;99.90;;;;;;4993857;28;20030;-51
2023/04/07 10:19:10;;;;;;;1.05;0.98;;;8.30;99.90;;;;;;4993774;28;20496;-50
2023/04/07 10:21:39;;;;;;;2.80;2.55;;;7.80;99.90;;;;;;4993650;28;20425;-50
2023/04/07 10:24:47;;;;;;;1.52;0.93;;;8.00;99.90;;;;;;4993374;28;20421;-50
2023/04/07 10:27:21;;;;;;;2.63;2.42;;;7.70;99.90;;;;;;5026419;28;20115;-50
2023/04/07 10:29:50;;;;;;;1.70;1.60;;;7.80;99.90;;;;;;5032914;28;20151;-50
2023/04/07 10:32:16;;;;;;;2.85;1.75;;;7.80;99.90;;;;;;5032867;28;20425;-50
2023/04/07 10:34:52;;;;;;;2.13;1.48;;;8.10;99.90;;;;;;5032669;28;20029;-50
2023/04/07 10:37:21;;;;;;;3.28;2.05;;;8.20;99.90;;;;;;5032005;28;20048;-50
2023/04/07 10:40:20;;;;;;;1.48;1.38;;;8.30;99.90;;;;;;5032302;28;20037;-50
2023/04/07 10:42:49;;;;;;;1.02;1.02;;;8.40;99.90;;;;;;5040958;28;20152;-50
2023/04/07 10:45:15;;;;;;;1.77;1.33;;;8.40;99.90;;;;;;5052503;28;20041;-49
2023/04/07 10:48:01;;;;;;;2.15;1.75;;;8.20;99.90;;;;;;5052357;28;20031;-49
2023/04/07 10:50:28;;;;;;;1.45;1.35;;;8.10;99.90;;;;;;5019113;28;20045;-51
2023/04/07 10:53:15;;;;;;;1.63;1.52;;;7.90;99.90;;;;;;5019632;28;20047;-50
2023/04/07 10:55:43;;;;;;;1.92;1.40;;;7.90;99.90;;;;;;5052136;28;20029;-49
2023/04/07 10:58:31;;;;;;;3.60;1.05;;;7.60;99.90;;;;;;5052358;28;20041;-51
2023/04/07 11:01:05;;;;;;;1.85;1.75;;;7.40;99.90;;;;;;5049055;28;20420;-50
2023/04/07 11:03:33;;;;;;;3.72;2.58;;;7.50;99.90;;;;;;5043700;28;20396;-50
2023/04/07 11:06:07;;;;;;;2.78;2.00;;;7.90;99.90;;;;;;5016588;28;20052;-50
2023/04/07 11:08:39;;;;;;;3.17;2.53;;;8.20;99.90;;;;;;5021558;28;20048;-50
2023/04/07 11:11:07;;;;;;;;;;;8.50;99.90;;;;;;5034762;28;20036;-50
2023/04/07 11:13:47;;;;;;;1.15;1.05;;;8.70;99.90;;;;;;5034042;28;19920;-50
2023/04/07 11:16:15;;;;;;;7.72;2.17;;;8.90;99.90;;;;;;5016394;28;20068;-50
2023/04/07 11:18:41;;;;;;;2.60;2.33;;;;;;;;;;5014458;28;20033;-50
2023/04/07 11:21:08;;;;;;;4.85;2.95;;;8.90;99.90;;;;;;5012982;28;20397;-50
2023/04/07 11:23:44;;;;;;;1.65;1.55;;;9.10;99.90;;;;;;5013795;28;20061;-51
2023/04/07 11:26:12;;;;;;;2.47;2.28;;;8.60;99.90;;;;;;5023749;28;20029;-49
2023/04/07 11:28:52;;;;;;;2.20;1.42;;;8.50;99.90;;;;;;5016456;28;20497;-51
2023/04/07 11:31:23;;;;;;;2.10;0.93;;;8.20;99.90;;;;;;5018453;28;20030;-51
2023/04/07 11:34:00;;;;;;;2.10;1.90;;;8.10;99.90;;;;;;4997107;28;20096;-51
2023/04/07 11:36:33;;;;;;;2.78;1.98;;;8.30;99.90;;;;;;5019487;28;20030;-49
2023/04/07 11:39:01;;;;;;;1.25;1.13;;;8.40;99.90;;;;;;5024477;28;20426;-50
2023/04/07 11:41:29;;;;;;;4.05;2.45;;;8.20;99.90;;;;;;5021841;28;20029;-49
2023/04/07 11:44:10;;;;;;;2.50;2.22;;;8.40;99.90;;;;;;5023952;28;20493;-49
2023/04/07 11:46:51;;;;;;;3.25;1.75;;;8.50;99.90;;;;;;5022535;28;20033;-50
2023/04/07 11:49:17;;;;;;;1.38;1.27;;;8.70;99.90;;;;;;5030602;28;20420;-46
2023/04/07 11:51:44;;;;;;;3.08;2.05;;;8.50;99.90;;;;;;5020702;28;20029;-51
2023/04/07 11:54:10;;;;;;;2.20;2.00;;;8.70;99.90;;;;;;5031103;28;20041;-54
2023/04/07 11:56:45;;;;;;;5.28;2.55;;;8.80;99.90;;;;;;5029393;28;20029;-51
2023/04/07 11:59:29;;;;;;;1.23;1.13;;;8.90;99.90;;;;;;5024991;28;20033;-50
2023/04/07 12:01:56;;;;;;;3.13;2.05;;;8.70;99.90;;;;;;5025930;28;20043;-50
2023/04/07 12:04:21;;;;;;;2.67;2.47;;;9.00;99.90;;;;;;5020768;28;20071;-49
2023/04/07 12:06:48;;;;;;;2.17;1.80;;;9.00;99.90;;;;;;5022985;28;20478;-53
2023/04/07 12:09:29;;;;;;;1.95;1.70;;;8.90;99.90;;;;;;5021799;28;20050;-52
2023/04/07 12:11:56;;;;;;;1.85;1.75;;;9.00;99.90;;;;;;5020876;28;20488;-51
2023/04/07 12:14:22;;;;;;;3.22;2.10;;;8.70;99.90;;;;;;5023668;28;20416;-50
2023/04/07 12:16:48;;;;;;;2.95;2.67;;;8.70;99.90;;;;;;5023397;28;20041;-52
2023/04/07 12:19:13;;;;;;;2.30;1.73;;;8.60;99.90;;;;;;5021733;28;20026;-53
2023/04/07 12:21:39;;;;;;;3.95;2.47;;;8.50;99.90;;;;;;5024984;28;20033;-49
2023/04/07 12:24:05;;;;;;;3.38;2.42;;;8.50;99.90;;;;;;5033146;28;20061;-48
2023/04/07 12:26:31;;;;;;;1.48;1.38;;;8.60;99.90;;;;;;5033070;28;20373;-48
2023/04/07 12:29:03;;;;;;;1.23;1.13;;;8.40;99.90;;;;;;5064553;28;20029;-48
2023/04/07 12:31:32;;;;;;;2.45;2.25;;;8.20;99.90;;;;;;5031303;28;20378;-48
2023/04/07 12:33:58;;;;;;;1.75;1.65;;;8.20;99.90;;;;;;5033177;28;20435;-48
2023/04/07 12:36:26;;;;;;;6.18;2.72;;;8.00;99.90;;;;;;5033267;28;20037;-50
2023/04/07 12:38:53;;;;;;;2.88;2.25;;;8.20;99.90;;;;;;5033098;28;20116;-50
2023/04/07 12:41:19;;;;;;;4.72;2.83;;;8.20;99.90;;;;;;5033262;28;20421;-50
2023/04/07 12:43:45;;;;;;;2.83;2.55;;;8.40;99.90;;;;;;5032860;28;20041;-49
2023/04/07 12:46:11;;;;;;;3.10;2.60;;;8.50;99.90;;;;;;5032809;28;20057;-48
2023/04/07 12:48:37;;;;;;;1.15;1.15;;;8.60;99.90;;;;;;5031152;28;20084;-50
2023/04/07 12:51:02;;;;;;;1.67;1.25;;;8.50;99.90;;;;;;5032838;28;20049;-50
2023/04/07 12:53:28;;;;;;;3.80;2.35;;;8.50;99.90;;;;;;5014559;28;20046;-50
2023/04/07 12:55:55;;;;;;;1.60;0.85;;;8.40;99.90;;;;;;5064365;28;20034;-49
2023/04/07 12:58:20;;;;;;;1.33;1.23;;;8.20;99.90;;;;;;5032902;28;20033;-48
2023/04/07 13:00:47;;;;;;;2.25;2.05;;;8.00;99.90;;;;;;5033006;28;20546;-48
2023/04/07 13:03:13;;;;;;;0.90;0.80;;;8.00;99.90;;;;;;5036563;28;20033;-47
2023/04/07 13:05:39;;;;;;;2.78;2.25;;;8.10;99.90;;;;;;5036118;28;20036;-49
2023/04/07 13:08:06;;;;;;;2.17;1.83;;;8.00;99.90;;;;;;5018232;28;20041;-47
2023/04/07 13:10:32;;;;;;;1.20;1.00;;;8.30;99.90;;;;;;5036434;28;20069;-50
2023/04/07 13:12:58;;;;;;;1.85;1.75;;;8.20;99.90;;;;;;5067932;28;20037;-48